createdAt,value
2022-10-22T00:00:24.190Z,23.23
2022-10-22T00:02:53.618Z,23.67
2022-10-22T00:05:22.145Z,22.87
2022-10-22T00:07:53.609Z,22.37
2022-10-22T00:10:29.074Z,21.90
2022-10-22T00:13:00.227Z,22.70
2022-10-22T00:15:29.785Z,22.67
2022-10-22T00:18:02.348Z,22.87
2022-10-22T00:20:34.830Z,22.70
2022-10-22T00:23:08.872Z,22.93
2022-10-22T00:25:39.901Z,24.30
2022-10-22T00:28:11.328Z,24.20
2022-10-22T00:30:42.241Z,23.30
2022-10-22T00:33:18.618Z,24.87
2022-10-22T00:35:50.208Z,24.23
2022-10-22T00:38:20.711Z,25.00
2022-10-22T00:40:55.153Z,24.53
2022-10-22T00:43:27.958Z,24.53
2022-10-22T00:45:59.418Z,26.53
2022-10-22T00:48:33.621Z,26.40
2022-10-22T00:51:10.008Z,25.47
2022-10-22T00:53:43.549Z,26.70
2022-10-22T00:56:16.198Z,24.63
2022-10-22T00:58:52.647Z,24.37
2022-10-22T01:01:26.378Z,24.47
2022-10-22T01:03:56.620Z,23.20
2022-10-22T01:06:31.672Z,23.00
2022-10-22T01:09:14.449Z,23.77
2022-10-22T01:11:54.743Z,24.00
2022-10-22T01:14:32.203Z,23.33
2022-10-22T01:17:09.723Z,22.77
2022-10-22T01:19:58.143Z,25.17
2022-10-22T01:22:35.210Z,24.90
2022-10-22T01:25:15.167Z,23.20
2022-10-22T01:28:04.091Z,22.33
2022-10-22T01:30:39.193Z,22.87
2022-10-22T01:33:11.246Z,22.83
2022-10-22T01:35:45.661Z,23.40
2022-10-22T01:38:21.305Z,23.77
2022-10-22T01:40:51.803Z,22.87
2022-10-22T01:43:23.924Z,22.43
2022-10-22T01:46:02.380Z,22.43
2022-10-22T01:48:46.263Z,22.07
2022-10-22T01:51:38.771Z,23.43
2022-10-22T01:54:26.431Z,22.37
2022-10-22T01:57:08.570Z,21.93
2022-10-22T01:59:52.562Z,21.53
2022-10-22T02:02:39.650Z,22.27
2022-10-22T02:05:15.495Z,21.43
2022-10-22T02:07:49.665Z,22.07
2022-10-22T02:10:23.226Z,22.23
2022-10-22T02:12:55.975Z,23.43
2022-10-22T02:15:30.050Z,22.93
2022-10-22T02:18:11.581Z,22.67
2022-10-22T02:20:50.881Z,25.40
2022-10-22T02:23:27.763Z,23.90
2022-10-22T02:26:02.531Z,23.00
2022-10-22T02:28:40.456Z,22.23
2022-10-22T02:31:18.956Z,25.23
2022-10-22T02:33:54.821Z,23.47
2022-10-22T02:36:29.447Z,25.03
2022-10-22T02:38:58.520Z,23.83
2022-10-22T02:41:29.885Z,24.63
2022-10-22T02:44:03.527Z,24.10
2022-10-22T02:46:37.804Z,24.50
2022-10-22T02:49:17.292Z,24.77
2022-10-22T02:51:50.698Z,24.33
2022-10-22T02:54:23.973Z,24.93
2022-10-22T02:56:55.472Z,23.63
2022-10-22T02:59:26.738Z,22.53
2022-10-22T03:02:01.118Z,23.30
2022-10-22T03:04:44.380Z,22.87
2022-10-22T03:07:16.031Z,22.93
2022-10-22T03:09:47.354Z,21.57
2022-10-22T03:12:25.254Z,20.17
2022-10-22T03:14:54.825Z,21.60
2022-10-22T03:17:24.473Z,19.80
2022-10-22T03:20:03.321Z,19.63
2022-10-22T03:22:38.437Z,18.43
2022-10-22T03:25:18.967Z,18.13
2022-10-22T03:27:52.064Z,16.10
2022-10-22T03:30:27.937Z,15.60
2022-10-22T03:32:59.171Z,14.40
2022-10-22T03:35:35.967Z,13.17
2022-10-22T03:38:09.830Z,12.80
2022-10-22T03:40:38.720Z,11.87
2022-10-22T03:43:14.009Z,11.60
2022-10-22T03:45:47.519Z,10.30
2022-10-22T03:48:21.165Z,11.30
2022-10-22T03:50:53.224Z,10.40
2022-10-22T03:53:30.486Z,10.50
2022-10-22T03:56:03.828Z,11.03
2022-10-22T03:58:32.719Z,10.90
2022-10-22T04:01:14.084Z,10.00
2022-10-22T04:03:43.019Z,11.00
2022-10-22T04:06:16.177Z,9.70
2022-10-22T04:08:47.106Z,11.07
2022-10-22T04:11:17.511Z,11.33
2022-10-22T04:13:46.965Z,11.70
2022-10-22T04:16:17.785Z,12.47
2022-10-22T04:18:55.923Z,12.23
2022-10-22T04:21:31.654Z,12.43
2022-10-22T04:24:00.441Z,12.43
2022-10-22T04:26:30.351Z,14.47
2022-10-22T04:29:06.120Z,15.13
2022-10-22T04:31:37.165Z,14.83
2022-10-22T04:34:09.432Z,14.83
2022-10-22T04:36:44.126Z,15.63
2022-10-22T04:39:22.539Z,15.90
2022-10-22T04:42:03.665Z,15.80
2022-10-22T04:44:36.963Z,15.57
2022-10-22T04:47:11.134Z,15.53
2022-10-22T04:49:40.631Z,15.37
2022-10-22T04:52:18.141Z,16.43
2022-10-22T04:54:52.999Z,16.67
2022-10-22T04:57:27.984Z,18.60
2022-10-22T05:00:16.148Z,19.13
2022-10-22T05:05:45.648Z,19.60
2022-10-22T05:08:25.582Z,20.07
2022-10-22T05:11:27.006Z,19.50
2022-10-22T05:14:03.226Z,19.83
2022-10-22T05:16:39.425Z,20.60
2022-10-22T05:19:11.326Z,21.40
2022-10-22T05:21:54.680Z,20.27
2022-10-22T05:25:12.503Z,21.43
2022-10-22T05:28:01.160Z,20.43
2022-10-22T05:30:56.179Z,20.40
2022-10-22T05:33:31.981Z,20.77
2022-10-22T05:36:10.694Z,20.67
2022-10-22T05:42:05.148Z,21.63
2022-10-22T05:44:49.184Z,21.60
2022-10-22T05:50:36.744Z,21.60
2022-10-22T05:53:10.741Z,19.33
2022-10-22T05:55:47.406Z,21.07
2022-10-22T05:58:33.105Z,21.20
2022-10-22T06:08:00.615Z,21.00
2022-10-22T06:10:48.339Z,20.50
2022-10-22T06:17:03.376Z,22.30
2022-10-22T06:23:05.888Z,19.80
2022-10-22T06:26:00.712Z,19.53
2022-10-22T06:29:02.654Z,18.50
2022-10-22T06:31:55.167Z,17.80
2022-10-22T06:34:58.119Z,17.67
2022-10-22T06:37:35.395Z,16.67
2022-10-22T06:49:37.937Z,18.30
2022-10-22T06:52:20.736Z,16.43
2022-10-22T06:55:18.186Z,16.87
2022-10-22T06:58:08.313Z,18.37
2022-10-22T07:01:16.659Z,17.80
2022-10-22T07:03:54.539Z,17.50
2022-10-22T07:06:45.560Z,17.73
2022-10-22T07:09:20.588Z,17.60
2022-10-22T07:11:49.945Z,17.87
2022-10-22T07:14:23.743Z,17.40
2022-10-22T07:17:02.894Z,16.87
2022-10-22T07:19:49.624Z,17.40
2022-10-22T07:22:24.644Z,17.20
2022-10-22T07:25:09.876Z,17.10
2022-10-22T07:28:07.873Z,18.00
2022-10-22T07:30:37.314Z,17.27
2022-10-22T07:33:12.699Z,17.63
2022-10-22T07:35:44.672Z,17.30
2022-10-22T07:38:29.415Z,17.03
2022-10-22T07:41:06.623Z,16.03
2022-10-22T07:43:51.908Z,16.17
2022-10-22T07:46:31.258Z,16.10
2022-10-22T07:49:01.437Z,16.80
2022-10-22T07:51:35.113Z,16.27
2022-10-22T07:54:16.289Z,15.23
2022-10-22T07:56:46.461Z,16.37
2022-10-22T07:59:47.045Z,15.77
2022-10-22T08:02:25.142Z,14.20
2022-10-22T08:05:04.612Z,15.27
2022-10-22T08:07:40.292Z,15.50
2022-10-22T08:10:16.295Z,14.70
2022-10-22T08:12:51.659Z,14.77
2022-10-22T08:15:42.517Z,14.60
2022-10-22T08:18:54.094Z,13.53
2022-10-22T08:21:49.997Z,13.93
2022-10-22T08:24:22.596Z,13.13
2022-10-22T08:27:34.682Z,13.27
2022-10-22T08:30:28.132Z,13.33
2022-10-22T08:33:10.421Z,14.23
2022-10-22T08:35:42.973Z,12.17
2022-10-22T08:38:47.635Z,11.50
2022-10-22T08:44:53.720Z,11.10
2022-10-22T08:48:01.332Z,10.90
2022-10-22T08:50:43.498Z,9.20
2022-10-22T08:53:17.894Z,8.47
2022-10-22T08:55:59.018Z,8.77
2022-10-22T08:58:49.901Z,9.33
2022-10-22T09:01:29.799Z,7.43
2022-10-22T09:04:46.147Z,6.90
2022-10-22T09:07:20.245Z,5.93
2022-10-22T09:10:03.356Z,4.77
2022-10-22T09:12:52.695Z,4.60
2022-10-22T09:15:22.844Z,4.13
2022-10-22T09:18:44.733Z,3.93
2022-10-22T09:21:28.841Z,4.03
2022-10-22T09:24:10.638Z,3.80
2022-10-22T09:26:49.272Z,3.00
2022-10-22T09:29:26.111Z,2.97
2022-10-22T09:31:58.365Z,2.90
2022-10-22T09:34:28.443Z,2.87
2022-10-22T09:37:08.745Z,2.60
2022-10-22T09:42:46.477Z,2.70
2022-10-22T09:51:47.525Z,2.60
2022-10-22T09:54:22.627Z,2.77
2022-10-22T09:57:00.929Z,2.20
2022-10-22T09:59:41.958Z,1.90
2022-10-22T10:02:20.024Z,2.40
2022-10-22T10:04:53.310Z,2.20
2022-10-22T10:07:27.943Z,2.20
2022-10-22T10:10:10.139Z,1.60
2022-10-22T10:12:54.762Z,2.30
2022-10-22T10:15:39.001Z,1.73
2022-10-22T10:18:22.947Z,2.07
2022-10-22T10:21:05.174Z,1.90
2022-10-22T10:24:07.857Z,1.83
2022-10-22T10:26:52.904Z,2.00
2022-10-22T10:29:40.190Z,2.00
2022-10-22T10:32:25.344Z,2.40
2022-10-22T10:35:15.802Z,1.80
2022-10-22T10:38:05.957Z,2.17
2022-10-22T10:40:43.576Z,2.60
2022-10-22T10:43:20.010Z,2.87
2022-10-22T10:46:03.063Z,2.30
2022-10-22T10:48:54.229Z,2.60
2022-10-22T10:51:46.919Z,2.00
2022-10-22T10:54:44.844Z,2.60
2022-10-22T10:57:29.140Z,2.53
2022-10-22T11:03:56.038Z,2.23
2022-10-22T11:06:46.727Z,2.03
2022-10-22T11:09:31.206Z,2.37
2022-10-22T11:12:03.221Z,2.53
2022-10-22T11:14:42.647Z,2.53
2022-10-22T11:17:19.385Z,2.53
2022-10-22T11:19:59.811Z,2.23
2022-10-22T11:22:42.087Z,2.20
2022-10-22T11:25:22.184Z,2.00
2022-10-22T11:27:54.436Z,2.30
2022-10-22T11:30:35.320Z,2.23
2022-10-22T11:33:17.032Z,1.80
2022-10-22T11:35:47.946Z,2.37
2022-10-22T11:38:22.501Z,2.40
2022-10-22T11:40:58.434Z,2.17
2022-10-22T11:43:36.132Z,2.67
2022-10-22T11:46:32.005Z,2.30
2022-10-22T11:49:08.511Z,2.63
2022-10-22T11:51:41.953Z,3.47
2022-10-22T11:54:34.211Z,2.60
2022-10-22T11:57:24.867Z,3.37
2022-10-22T11:59:57.737Z,2.60
2022-10-22T12:02:45.468Z,2.00
2022-10-22T12:05:37.181Z,2.33
2022-10-22T12:08:28.229Z,4.27
2022-10-22T12:11:04.996Z,2.87
2022-10-22T12:13:53.308Z,2.47
2022-10-22T12:16:37.853Z,1.93
2022-10-22T12:19:21.889Z,5.40
2022-10-22T12:22:01.591Z,2.50
2022-10-22T12:24:34.714Z,2.67
2022-10-22T12:27:09.234Z,3.43
2022-10-22T12:29:46.230Z,2.60
2022-10-22T12:32:18.563Z,2.93
2022-10-22T12:34:56.730Z,2.10
2022-10-22T12:37:26.952Z,2.70
2022-10-22T12:39:57.746Z,1.90
2022-10-22T12:42:31.630Z,1.93
2022-10-22T12:45:02.127Z,2.10
2022-10-22T12:47:32.015Z,1.70
2022-10-22T12:50:06.840Z,1.70
2022-10-22T12:52:37.688Z,1.83
2022-10-22T12:55:10.552Z,1.60
2022-10-22T12:57:44.262Z,1.70
2022-10-22T13:00:24.890Z,2.20
2022-10-22T13:02:54.061Z,2.67
2022-10-22T13:05:27.601Z,2.73
2022-10-22T13:08:05.375Z,2.80
2022-10-22T13:10:35.619Z,1.60
2022-10-22T13:13:15.097Z,3.20
2022-10-22T13:15:44.963Z,2.30
2022-10-22T13:18:20.497Z,2.43
2022-10-22T13:20:54.306Z,6.30
2022-10-22T13:23:26.053Z,3.40
2022-10-22T13:26:04.178Z,2.17
2022-10-22T13:28:36.219Z,1.60
2022-10-22T13:31:13.353Z,2.77
2022-10-22T13:33:46.882Z,1.60
2022-10-22T13:36:18.894Z,1.50
2022-10-22T13:39:14.723Z,1.50
2022-10-22T13:41:49.059Z,1.30
2022-10-22T13:44:44.780Z,1.07
2022-10-22T13:47:36.190Z,1.30
2022-10-22T13:50:17.637Z,1.20
2022-10-22T13:52:54.433Z,1.00
2022-10-22T13:55:30.252Z,1.47
2022-10-22T14:01:10.507Z,1.20
2022-10-22T14:03:44.744Z,1.03
2022-10-22T14:06:18.729Z,1.00
2022-10-22T14:08:59.144Z,1.07
2022-10-22T14:11:34.828Z,1.23
2022-10-22T14:14:17.757Z,1.27
2022-10-22T14:16:59.893Z,1.30
2022-10-22T14:19:31.909Z,1.20
2022-10-22T14:22:12.893Z,1.10
2022-10-22T14:24:43.618Z,1.27
2022-10-22T14:27:21.870Z,1.40
2022-10-22T14:29:59.379Z,1.37
2022-10-22T14:32:31.547Z,1.10
2022-10-22T14:35:02.849Z,1.20
2022-10-22T14:37:32.433Z,1.23
2022-10-22T14:40:03.937Z,1.43
2022-10-22T14:42:33.426Z,1.40
2022-10-22T14:45:02.182Z,1.47
2022-10-22T14:47:36.422Z,1.87
2022-10-22T14:50:09.391Z,1.37
2022-10-22T14:52:39.694Z,1.47
2022-10-22T14:55:13.127Z,1.60
2022-10-22T14:57:42.422Z,1.10
2022-10-22T15:00:22.563Z,2.23
2022-10-22T15:02:58.819Z,1.77
2022-10-22T15:05:32.853Z,1.37
2022-10-22T15:08:01.571Z,2.10
2022-10-22T15:10:31.626Z,2.17
2022-10-22T15:13:04.512Z,3.27
2022-10-22T15:15:39.673Z,7.67
2022-10-22T15:18:16.750Z,3.07
2022-10-22T15:20:53.250Z,41.77
2022-10-22T15:23:22.069Z,2.03
2022-10-22T15:25:54.374Z,5.43
2022-10-22T15:28:24.159Z,5.00
2022-10-22T15:31:03.874Z,1.70
2022-10-22T15:33:37.683Z,7.67
2022-10-22T15:36:13.674Z,2.13
2022-10-22T15:38:44.485Z,2.20
2022-10-22T15:41:22.058Z,2.80
2022-10-22T15:44:01.794Z,3.60
2022-10-22T15:46:36.862Z,2.90
2022-10-22T15:49:08.599Z,1.93
2022-10-22T15:51:38.312Z,3.10
2022-10-22T15:54:10.362Z,2.17
2022-10-22T15:56:39.998Z,1.93
2022-10-22T15:59:12.116Z,2.33
2022-10-22T16:01:44.818Z,2.27
2022-10-22T16:04:18.492Z,2.50
2022-10-22T16:06:49.661Z,2.50
2022-10-22T16:09:21.803Z,2.20
2022-10-22T16:11:54.356Z,2.07
2022-10-22T16:14:28.642Z,2.47
2022-10-22T16:17:02.391Z,8.47
2022-10-22T16:19:37.352Z,3.80
2022-10-22T16:22:06.672Z,2.80
2022-10-22T16:24:36.337Z,2.00
2022-10-22T16:27:06.114Z,1.83
2022-10-22T16:29:34.826Z,2.23
2022-10-22T16:32:05.319Z,2.33
2022-10-22T16:34:35.377Z,2.93
2022-10-22T16:37:15.711Z,2.93
2022-10-22T16:39:52.254Z,8.17
2022-10-22T16:42:22.533Z,4.73
2022-10-22T16:44:51.704Z,4.47
2022-10-22T16:47:21.977Z,4.07
2022-10-22T16:50:18.001Z,3.80
2022-10-22T16:52:48.742Z,4.10
2022-10-22T16:55:18.050Z,4.20
2022-10-22T16:57:54.549Z,2.63
2022-10-22T17:00:24.668Z,3.00
2022-10-22T17:03:00.500Z,3.70
2022-10-22T17:05:32.227Z,3.37
2022-10-22T17:08:00.636Z,3.20
2022-10-22T17:10:30.358Z,2.73
2022-10-22T17:13:00.771Z,2.70
2022-10-22T17:15:29.741Z,3.10
2022-10-22T17:17:59.094Z,3.00
2022-10-22T17:20:28.180Z,2.60
2022-10-22T17:22:58.357Z,3.27
2022-10-22T17:25:37.785Z,2.37
2022-10-22T17:28:06.456Z,3.03
2022-10-22T17:30:39.133Z,10.40
2022-10-22T17:33:08.274Z,4.93
2022-10-22T17:35:37.330Z,6.73
2022-10-22T17:38:08.236Z,6.00
2022-10-22T17:40:39.252Z,3.80
2022-10-22T17:43:08.074Z,3.93
2022-10-22T17:45:37.762Z,2.53
2022-10-22T17:48:07.457Z,3.03
2022-10-22T17:50:37.789Z,2.37
2022-10-22T17:53:08.470Z,2.57
2022-10-22T17:55:37.793Z,2.50
2022-10-22T17:58:06.526Z,2.00
2022-10-22T18:00:38.359Z,2.07
2022-10-22T18:03:09.066Z,3.30
2022-10-22T18:05:37.778Z,4.50
2022-10-22T18:08:09.229Z,5.20
2022-10-22T18:10:42.036Z,6.23
2022-10-22T18:13:10.751Z,5.93
2022-10-22T18:15:39.724Z,4.93
2022-10-22T18:18:08.442Z,4.47
2022-10-22T18:20:37.170Z,4.70
2022-10-22T18:23:06.975Z,6.23
2022-10-22T18:25:43.491Z,5.43
2022-10-22T18:28:14.700Z,5.93
2022-10-22T18:30:44.689Z,6.53
2022-10-22T18:33:18.661Z,6.63
2022-10-22T18:35:49.357Z,5.00
2022-10-22T18:38:24.404Z,5.10
2022-10-22T18:40:57.895Z,4.70
2022-10-22T18:43:33.516Z,5.17
2022-10-22T18:46:02.466Z,4.40
2022-10-22T18:48:33.716Z,5.03
2022-10-22T18:51:05.538Z,4.80
2022-10-22T18:53:34.538Z,5.87
2022-10-22T18:56:07.275Z,7.33
2022-10-22T18:58:42.821Z,6.87
2022-10-22T19:01:13.832Z,6.90
2022-10-22T19:03:42.876Z,5.73
2022-10-22T19:06:11.495Z,6.83
2022-10-22T19:08:40.889Z,6.57
2022-10-22T19:11:20.680Z,9.30
2022-10-22T19:13:49.702Z,10.33
2022-10-22T19:16:25.137Z,9.13
2022-10-22T19:18:56.032Z,8.10
2022-10-22T19:21:26.066Z,7.33
2022-10-22T19:24:01.155Z,8.83
2022-10-22T19:26:33.691Z,8.27
2022-10-22T19:29:03.252Z,7.50
2022-10-22T19:31:32.553Z,8.30
2022-10-22T19:34:04.447Z,7.43
2022-10-22T19:36:34.770Z,6.87
2022-10-22T19:39:04.558Z,7.27
2022-10-22T19:41:37.781Z,7.53
2022-10-22T19:44:06.764Z,8.63
2022-10-22T19:46:37.950Z,8.90
2022-10-22T19:49:07.101Z,10.43
2022-10-22T19:51:35.381Z,12.33
2022-10-22T19:54:06.315Z,13.87
2022-10-22T19:56:39.928Z,12.47
2022-10-22T19:59:08.860Z,11.57
2022-10-22T20:01:38.382Z,11.33
2022-10-22T20:04:07.523Z,10.50
2022-10-22T20:06:37.920Z,9.27
2022-10-22T20:09:07.723Z,12.40
2022-10-22T20:11:43.521Z,10.87
2022-10-22T20:14:14.335Z,12.60
2022-10-22T20:16:57.715Z,11.27
2022-10-22T20:19:39.949Z,9.60
2022-10-22T20:22:13.692Z,9.60
2022-10-22T20:24:45.225Z,10.13
2022-10-22T20:27:20.326Z,8.23
2022-10-22T20:29:49.343Z,7.63
2022-10-22T20:32:18.172Z,8.07
2022-10-22T20:34:48.493Z,6.90
2022-10-22T20:37:18.501Z,6.97
2022-10-22T20:39:48.334Z,8.00
2022-10-22T20:42:18.955Z,8.67
2022-10-22T20:44:49.966Z,8.30
2022-10-22T20:47:19.123Z,8.60
2022-10-22T20:49:49.794Z,11.40
2022-10-22T20:52:21.549Z,9.67
2022-10-22T20:54:50.857Z,7.63
2022-10-22T20:57:26.566Z,8.77
2022-10-22T20:59:57.698Z,8.20
2022-10-22T21:02:26.280Z,11.47
2022-10-22T21:04:55.269Z,11.87
2022-10-22T21:07:38.766Z,11.50
2022-10-22T21:10:09.129Z,12.03
2022-10-22T21:12:42.271Z,11.53
2022-10-22T21:15:12.766Z,9.87
2022-10-22T21:17:42.100Z,9.80
2022-10-22T21:22:42.682Z,12.20
2022-10-22T21:25:14.593Z,9.53
2022-10-22T21:27:44.881Z,9.43
2022-10-22T21:30:19.563Z,8.57
2022-10-22T21:32:51.860Z,8.60
2022-10-22T21:35:22.859Z,7.27
2022-10-22T21:37:52.733Z,6.63
2022-10-22T21:40:22.265Z,6.87
2022-10-22T21:42:53.032Z,7.47
2022-10-22T21:45:26.181Z,7.17
2022-10-22T21:47:54.717Z,6.97
2022-10-22T21:50:24.776Z,6.80
2022-10-22T21:52:53.949Z,7.50
2022-10-22T21:55:22.361Z,6.43
2022-10-22T21:57:56.438Z,5.60
2022-10-22T22:00:33.097Z,6.10
2022-10-22T22:03:04.338Z,6.73
2022-10-22T22:05:32.824Z,6.07
2022-10-22T22:08:11.546Z,6.50
2022-10-22T22:13:19.630Z,6.10
2022-10-22T22:15:48.144Z,5.57
2022-10-22T22:18:18.699Z,7.70
2022-10-22T22:20:48.241Z,8.00
2022-10-22T22:23:18.756Z,7.07
2022-10-22T22:25:52.883Z,7.03
2022-10-22T22:28:26.242Z,5.97
2022-10-22T22:30:57.949Z,6.33
2022-10-22T22:33:27.456Z,6.27
2022-10-22T22:36:00.815Z,6.00
2022-10-22T22:38:29.664Z,5.97
2022-10-22T22:41:03.262Z,6.23
2022-10-22T22:43:33.387Z,6.70
2022-10-22T22:46:08.018Z,5.77
2022-10-22T22:48:36.781Z,7.27
2022-10-22T22:51:08.925Z,8.37
2022-10-22T22:53:38.767Z,7.90
2022-10-22T22:56:10.093Z,8.20
2022-10-22T22:58:43.022Z,6.97
2022-10-22T23:01:21.928Z,6.50
2022-10-22T23:03:55.707Z,8.03
2022-10-22T23:06:34.244Z,8.30
2022-10-22T23:09:02.785Z,7.97
2022-10-22T23:11:31.612Z,6.37
2022-10-22T23:14:02.958Z,6.30
2022-10-22T23:16:36.948Z,6.20
2022-10-22T23:19:06.811Z,7.33
2022-10-22T23:21:38.786Z,7.20
2022-10-22T23:24:10.364Z,5.50
2022-10-22T23:26:41.372Z,6.10
2022-10-22T23:29:14.630Z,5.13
2022-10-22T23:31:44.571Z,5.23
2022-10-22T23:34:15.626Z,4.80
2022-10-22T23:36:43.952Z,5.40
2022-10-22T23:39:15.677Z,5.40
2022-10-22T23:41:44.258Z,5.80
2022-10-22T23:44:14.775Z,5.73
2022-10-22T23:46:53.746Z,6.40
2022-10-22T23:49:25.258Z,5.63
2022-10-22T23:52:01.635Z,4.70
2022-10-22T23:54:30.781Z,5.80
2022-10-22T23:57:00.845Z,7.30
2022-10-22T23:59:33.157Z,5.87
